sensor_id;sensor_type;location;lat;lon;timestamp;pressure;altitude;pressure_sealevel;temperature;humidity
33155;BME280;19511;42.682;23.332;2023-05-14T00:00:57;95577.13;;;13.83;100.00
33155;BME280;19511;42.682;23.332;2023-05-14T00:03:22;95561.88;;;13.67;100.00
33155;BME280;19511;42.682;23.332;2023-05-14T00:05:48;95580.59;;;13.91;100.00
33155;BME280;19511;42.682;23.332;2023-05-14T00:08:13;95493.78;;;13.28;100.00
33155;BME280;19511;42.682;23.332;2023-05-14T00:10:39;95575.19;;;13.80;100.00
33155;BME280;19511;42.682;23.332;2023-05-14T00:13:04;95574.88;;;13.74;100.00
33155;BME280;19511;42.682;23.332;2023-05-14T00:15:30;95577.50;;;13.85;100.00
33155;BME280;19511;42.682;23.332;2023-05-14T00:17:55;95571.63;;;13.79;100.00
33155;BME280;19511;42.682;23.332;2023-05-14T00:20:20;95549.06;;;13.74;100.00
33155;BME280;19511;42.682;23.332;2023-05-14T00:22:46;95564.91;;;13.77;100.00
33155;BME280;19511;42.682;23.332;2023-05-14T00:25:11;95455.97;;;13.07;100.00
33155;BME280;19511;42.682;23.332;2023-05-14T00:27:37;95558.50;;;13.80;100.00
33155;BME280;19511;42.682;23.332;2023-05-14T00:30:04;95538.81;;;13.70;100.00
33155;BME280;19511;42.682;23.332;2023-05-14T00:32:35;95548.25;;;13.77;100.00
33155;BME280;19511;42.682;23.332;2023-05-14T00:35:01;95558.16;;;13.78;100.00
33155;BME280;19511;42.682;23.332;2023-05-14T00:37:28;95537.28;;;13.66;100.00
33155;BME280;19511;42.682;23.332;2023-05-14T00:39:58;95549.91;;;13.70;100.00
33155;BME280;19511;42.682;23.332;2023-05-14T00:42:27;95521.22;;;13.53;100.00
33155;BME280;19511;42.682;23.332;2023-05-14T00:44:53;95555.00;;;13.76;100.00
33155;BME280;19511;42.682;23.332;2023-05-14T00:47:18;95547.53;;;13.73;100.00
33155;BME280;19511;42.682;23.332;2023-05-14T00:49:44;95540.53;;;13.61;100.00
33155;BME280;19511;42.682;23.332;2023-05-14T00:52:10;95547.63;;;13.65;100.00
33155;BME280;19511;42.682;23.332;2023-05-14T00:54:35;95542.41;;;13.67;100.00
33155;BME280;19511;42.682;23.332;2023-05-14T00:57:02;95439.75;;;13.05;100.00
33155;BME280;19511;42.682;23.332;2023-05-14T00:59:28;95546.72;;;13.72;100.00
33155;BME280;19511;42.682;23.332;2023-05-14T01:01:58;95540.06;;;13.66;100.00
33155;BME280;19511;42.682;23.332;2023-05-14T01:04:27;95523.81;;;13.64;100.00
33155;BME280;19511;42.682;23.332;2023-05-14T01:09:28;95529.13;;;13.79;100.00
33155;BME280;19511;42.682;23.332;2023-05-14T01:12:07;95510.63;;;13.68;100.00
33155;BME280;19511;42.682;23.332;2023-05-14T01:14:56;95529.97;;;13.76;100.00
33155;BME280;19511;42.682;23.332;2023-05-14T01:17:28;95515.22;;;13.55;100.00
33155;BME280;19511;42.682;23.332;2023-05-14T01:19:57;95521.50;;;13.59;100.00
33155;BME280;19511;42.682;23.332;2023-05-14T01:22:26;95525.25;;;13.49;100.00
33155;BME280;19511;42.682;23.332;2023-05-14T01:24:55;95538.41;;;13.45;100.00
33155;BME280;19511;42.682;23.332;2023-05-14T01:27:24;95552.19;;;13.52;100.00
33155;BME280;19511;42.682;23.332;2023-05-14T01:32:56;95507.38;;;13.19;100.00
33155;BME280;19511;42.682;23.332;2023-05-14T01:35:26;95556.16;;;13.51;100.00
33155;BME280;19511;42.682;23.332;2023-05-14T01:37:54;95560.88;;;13.54;100.00
33155;BME280;19511;42.682;23.332;2023-05-14T01:40:21;95553.31;;;13.54;100.00
33155;BME280;19511;42.682;23.332;2023-05-14T01:42:48;95560.25;;;13.43;100.00
33155;BME280;19511;42.682;23.332;2023-05-14T01:45:16;95557.09;;;13.41;100.00
33155;BME280;19511;42.682;23.332;2023-05-14T01:47:41;95550.28;;;13.45;100.00
33155;BME280;19511;42.682;23.332;2023-05-14T01:50:07;95552.78;;;13.39;100.00
33155;BME280;19511;42.682;23.332;2023-05-14T01:52:33;95534.03;;;13.13;100.00
33155;BME280;19511;42.682;23.332;2023-05-14T01:55:00;95564.00;;;13.29;100.00
33155;BME280;19511;42.682;23.332;2023-05-14T01:57:27;95554.97;;;13.21;100.00
33155;BME280;19511;42.682;23.332;2023-05-14T01:59:53;95564.94;;;13.18;100.00
33155;BME280;19511;42.682;23.332;2023-05-14T02:02:25;95554.72;;;13.12;100.00
33155;BME280;19511;42.682;23.332;2023-05-14T02:04:52;95543.66;;;13.08;100.00
33155;BME280;19511;42.682;23.332;2023-05-14T02:07:18;95549.25;;;13.04;100.00
33155;BME280;19511;42.682;23.332;2023-05-14T02:09:44;95571.53;;;12.97;100.00
33155;BME280;19511;42.682;23.332;2023-05-14T02:12:13;95565.28;;;12.89;100.00
33155;BME280;19511;42.682;23.332;2023-05-14T02:14:39;95555.81;;;12.87;100.00
33155;BME280;19511;42.682;23.332;2023-05-14T02:17:04;95470.09;;;12.27;100.00
33155;BME280;19511;42.682;23.332;2023-05-14T02:19:30;95546.06;;;12.71;100.00
33155;BME280;19511;42.682;23.332;2023-05-14T02:21:57;95562.72;;;12.71;100.00
33155;BME280;19511;42.682;23.332;2023-05-14T02:24:23;95485.22;;;12.19;100.00
33155;BME280;19511;42.682;23.332;2023-05-14T02:26:48;95583.81;;;12.65;100.00
33155;BME280;19511;42.682;23.332;2023-05-14T02:29:18;95564.09;;;12.56;100.00
33155;BME280;19511;42.682;23.332;2023-05-14T02:31:43;95566.88;;;12.56;100.00
33155;BME280;19511;42.682;23.332;2023-05-14T02:34:09;95490.97;;;11.97;100.00
33155;BME280;19511;42.682;23.332;2023-05-14T02:36:34;95583.16;;;12.50;100.00
33155;BME280;19511;42.682;23.332;2023-05-14T02:39:00;95567.53;;;12.29;100.00
33155;BME280;19511;42.682;23.332;2023-05-14T02:41:28;95592.91;;;12.28;100.00
33155;BME280;19511;42.682;23.332;2023-05-14T02:43:55;95595.34;;;12.22;100.00
33155;BME280;19511;42.682;23.332;2023-05-14T02:46:20;95584.72;;;12.13;100.00
33155;BME280;19511;42.682;23.332;2023-05-14T02:48:47;95591.38;;;12.23;100.00
33155;BME280;19511;42.682;23.332;2023-05-14T02:51:18;95594.91;;;12.27;100.00
33155;BME280;19511;42.682;23.332;2023-05-14T02:53:44;95592.94;;;12.24;100.00
33155;BME280;19511;42.682;23.332;2023-05-14T02:56:10;95594.00;;;12.37;100.00
33155;BME280;19511;42.682;23.332;2023-05-14T02:58:39;95585.03;;;12.19;100.00
33155;BME280;19511;42.682;23.332;2023-05-14T03:01:05;95550.78;;;11.98;100.00
33155;BME280;19511;42.682;23.332;2023-05-14T03:03:31;95601.63;;;12.26;100.00
33155;BME280;19511;42.682;23.332;2023-05-14T03:05:57;95519.69;;;11.72;100.00
33155;BME280;19511;42.682;23.332;2023-05-14T03:08:27;95507.03;;;11.71;100.00
33155;BME280;19511;42.682;23.332;2023-05-14T03:10:53;95580.31;;;12.19;100.00
33155;BME280;19511;42.682;23.332;2023-05-14T03:13:29;95586.97;;;12.29;100.00
33155;BME280;19511;42.682;23.332;2023-05-14T03:15:55;95567.09;;;12.34;100.00
33155;BME280;19511;42.682;23.332;2023-05-14T03:18:23;95550.28;;;12.11;100.00
33155;BME280;19511;42.682;23.332;2023-05-14T03:20:49;95469.09;;;11.65;100.00
33155;BME280;19511;42.682;23.332;2023-05-14T03:23:15;95576.31;;;12.24;100.00
33155;BME280;19511;42.682;23.332;2023-05-14T03:25:40;95563.25;;;12.21;100.00
33155;BME280;19511;42.682;23.332;2023-05-14T03:28:06;95582.69;;;12.17;100.00
33155;BME280;19511;42.682;23.332;2023-05-14T03:30:31;95572.28;;;12.29;100.00
33155;BME280;19511;42.682;23.332;2023-05-14T03:33:01;95566.81;;;12.21;100.00
33155;BME280;19511;42.682;23.332;2023-05-14T03:35:26;95509.81;;;11.71;100.00
33155;BME280;19511;42.682;23.332;2023-05-14T03:37:51;95597.72;;;12.20;100.00
33155;BME280;19511;42.682;23.332;2023-05-14T03:40:23;95520.66;;;11.48;100.00
33155;BME280;19511;42.682;23.332;2023-05-14T03:42:49;95577.44;;;11.81;100.00
33155;BME280;19511;42.682;23.332;2023-05-14T03:45:15;95591.28;;;11.85;100.00
33155;BME280;19511;42.682;23.332;2023-05-14T03:47:40;95594.09;;;11.77;100.00
33155;BME280;19511;42.682;23.332;2023-05-14T03:50:09;95598.88;;;11.73;100.00
33155;BME280;19511;42.682;23.332;2023-05-14T03:52:34;95574.81;;;11.63;100.00
33155;BME280;19511;42.682;23.332;2023-05-14T03:55:01;95598.16;;;11.62;100.00
33155;BME280;19511;42.682;23.332;2023-05-14T03:57:26;95598.91;;;11.66;100.00
33155;BME280;19511;42.682;23.332;2023-05-14T03:59:52;95592.94;;;11.71;100.00
33155;BME280;19511;42.682;23.332;2023-05-14T04:02:24;95589.78;;;11.69;100.00
33155;BME280;19511;42.682;23.332;2023-05-14T04:04:49;95494.09;;;11.01;100.00
33155;BME280;19511;42.682;23.332;2023-05-14T04:07:21;95600.50;;;11.64;100.00
33155;BME280;19511;42.682;23.332;2023-05-14T04:09:46;95594.16;;;11.67;100.00
33155;BME280;19511;42.682;23.332;2023-05-14T04:12:12;95581.94;;;11.60;100.00
33155;BME280;19511;42.682;23.332;2023-05-14T04:14:37;95594.13;;;11.70;100.00
33155;BME280;19511;42.682;23.332;2023-05-14T04:17:07;95601.22;;;11.75;100.00
33155;BME280;19511;42.682;23.332;2023-05-14T04:19:32;95608.25;;;11.87;100.00
33155;BME280;19511;42.682;23.332;2023-05-14T04:22:01;95599.59;;;11.85;100.00
33155;BME280;19511;42.682;23.332;2023-05-14T04:24:26;95555.78;;;11.62;100.00
33155;BME280;19511;42.682;23.332;2023-05-14T04:26:51;95609.81;;;11.99;100.00
33155;BME280;19511;42.682;23.332;2023-05-14T04:29:17;95551.53;;;11.50;100.00
33155;BME280;19511;42.682;23.332;2023-05-14T04:31:43;95613.81;;;11.83;100.00
33155;BME280;19511;42.682;23.332;2023-05-14T04:34:08;95625.28;;;11.89;100.00
33155;BME280;19511;42.682;23.332;2023-05-14T04:36:37;95614.63;;;11.87;100.00
33155;BME280;19511;42.682;23.332;2023-05-14T04:39:05;95544.44;;;11.45;100.00
33155;BME280;19511;42.682;23.332;2023-05-14T04:41:31;95626.06;;;11.89;100.00
33155;BME280;19511;42.682;23.332;2023-05-14T04:43:59;95630.09;;;11.81;100.00
33155;BME280;19511;42.682;23.332;2023-05-14T04:46:26;95627.72;;;11.80;100.00
33155;BME280;19511;42.682;23.332;2023-05-14T04:48:55;95640.78;;;11.79;100.00
33155;BME280;19511;42.682;23.332;2023-05-14T04:51:23;95641.94;;;11.85;100.00
33155;BME280;19511;42.682;23.332;2023-05-14T04:53:52;95647.50;;;11.82;100.00
33155;BME280;19511;42.682;23.332;2023-05-14T04:56:17;95646.41;;;11.68;100.00
33155;BME280;19511;42.682;23.332;2023-05-14T04:58:46;95659.47;;;11.68;100.00
33155;BME280;19511;42.682;23.332;2023-05-14T05:01:12;95663.06;;;11.61;100.00
33155;BME280;19511;42.682;23.332;2023-05-14T05:03:39;95660.00;;;11.44;100.00
33155;BME280;19511;42.682;23.332;2023-05-14T05:06:05;95662.84;;;11.26;100.00
33155;BME280;19511;42.682;23.332;2023-05-14T05:08:31;95679.06;;;11.28;100.00
33155;BME280;19511;42.682;23.332;2023-05-14T05:10:59;95670.81;;;11.14;100.00
33155;BME280;19511;42.682;23.332;2023-05-14T05:13:24;95695.75;;;11.10;100.00
33155;BME280;19511;42.682;23.332;2023-05-14T05:15:59;95702.06;;;11.03;100.00
33155;BME280;19511;42.682;23.332;2023-05-14T05:18:26;95708.00;;;10.98;100.00
33155;BME280;19511;42.682;23.332;2023-05-14T05:20:55;95694.22;;;10.94;100.00
33155;BME280;19511;42.682;23.332;2023-05-14T05:23:21;95704.09;;;10.85;100.00
33155;BME280;19511;42.682;23.332;2023-05-14T05:25:50;95716.34;;;10.84;100.00
33155;BME280;19511;42.682;23.332;2023-05-14T05:28:16;95720.31;;;10.79;100.00
33155;BME280;19511;42.682;23.332;2023-05-14T05:30:41;95708.47;;;10.86;100.00
33155;BME280;19511;42.682;23.332;2023-05-14T05:33:10;95702.56;;;10.66;100.00
33155;BME280;19511;42.682;23.332;2023-05-14T05:35:39;95725.06;;;10.71;100.00
33155;BME280;19511;42.682;23.332;2023-05-14T05:38:05;95732.22;;;10.58;100.00
33155;BME280;19511;42.682;23.332;2023-05-14T05:40:31;95733.00;;;10.48;100.00
33155;BME280;19511;42.682;23.332;2023-05-14T05:42:56;95718.38;;;10.47;100.00
33155;BME280;19511;42.682;23.332;2023-05-14T05:45:22;95722.72;;;10.52;100.00
33155;BME280;19511;42.682;23.332;2023-05-14T05:47:47;95733.00;;;10.44;100.00
33155;BME280;19511;42.682;23.332;2023-05-14T05:50:13;95700.56;;;10.12;100.00
33155;BME280;19511;42.682;23.332;2023-05-14T05:52:39;95653.16;;;9.70;100.00
33155;BME280;19511;42.682;23.332;2023-05-14T05:55:05;95651.56;;;9.69;100.00
33155;BME280;19511;42.682;23.332;2023-05-14T05:57:30;95737.69;;;10.25;100.00
33155;BME280;19511;42.682;23.332;2023-05-14T05:59:56;95730.97;;;10.16;100.00
33155;BME280;19511;42.682;23.332;2023-05-14T06:02:22;95717.91;;;10.05;100.00
33155;BME280;19511;42.682;23.332;2023-05-14T06:04:49;95702.09;;;9.88;100.00
33155;BME280;19511;42.682;23.332;2023-05-14T06:07:14;95727.78;;;9.95;100.00
33155;BME280;19511;42.682;23.332;2023-05-14T06:09:40;95745.53;;;9.91;100.00
33155;BME280;19511;42.682;23.332;2023-05-14T06:12:05;95736.03;;;9.81;100.00
33155;BME280;19511;42.682;23.332;2023-05-14T06:14:31;95726.53;;;9.68;100.00
33155;BME280;19511;42.682;23.332;2023-05-14T06:16:56;95738.41;;;9.75;100.00
33155;BME280;19511;42.682;23.332;2023-05-14T06:19:23;95732.44;;;9.62;100.00
33155;BME280;19511;42.682;23.332;2023-05-14T06:21:48;95626.53;;;9.01;100.00
33155;BME280;19511;42.682;23.332;2023-05-14T06:24:14;95653.78;;;9.20;100.00
33155;BME280;19511;42.682;23.332;2023-05-14T06:26:40;95710.72;;;9.61;100.00
33155;BME280;19511;42.682;23.332;2023-05-14T06:29:06;95722.97;;;9.71;100.00
33155;BME280;19511;42.682;23.332;2023-05-14T06:31:31;95632.47;;;9.13;100.00
33155;BME280;19511;42.682;23.332;2023-05-14T06:33:56;95743.09;;;9.71;100.00
33155;BME280;19511;42.682;23.332;2023-05-14T06:36:22;95731.25;;;9.67;100.00
33155;BME280;19511;42.682;23.332;2023-05-14T06:38:48;95743.94;;;9.75;100.00
33155;BME280;19511;42.682;23.332;2023-05-14T06:41:13;95743.53;;;9.77;100.00
33155;BME280;19511;42.682;23.332;2023-05-14T06:43:42;95742.75;;;9.84;100.00
33155;BME280;19511;42.682;23.332;2023-05-14T06:46:10;95650.66;;;9.29;100.00
33155;BME280;19511;42.682;23.332;2023-05-14T06:48:36;95725.78;;;9.82;100.00
33155;BME280;19511;42.682;23.332;2023-05-14T06:51:01;95694.91;;;9.51;100.00
33155;BME280;19511;42.682;23.332;2023-05-14T06:53:27;95742.34;;;9.74;100.00
33155;BME280;19511;42.682;23.332;2023-05-14T06:55:52;95713.94;;;9.81;100.00
33155;BME280;19511;42.682;23.332;2023-05-14T06:58:18;95676.44;;;9.76;100.00
33155;BME280;19511;42.682;23.332;2023-05-14T07:00:43;95717.50;;;9.89;100.00
33155;BME280;19511;42.682;23.332;2023-05-14T07:03:09;95710.78;;;9.90;100.00
33155;BME280;19511;42.682;23.332;2023-05-14T07:05:34;95701.34;;;9.94;100.00
33155;BME280;19511;42.682;23.332;2023-05-14T07:08:00;95723.06;;;10.18;100.00
33155;BME280;19511;42.682;23.332;2023-05-14T07:10:25;95721.91;;;10.19;100.00
33155;BME280;19511;42.682;23.332;2023-05-14T07:12:51;95720.34;;;10.36;100.00
33155;BME280;19511;42.682;23.332;2023-05-14T07:15:16;95717.19;;;10.41;100.00
33155;BME280;19511;42.682;23.332;2023-05-14T07:17:42;95748.00;;;10.39;100.00
33155;BME280;19511;42.682;23.332;2023-05-14T07:20:08;95760.25;;;10.49;100.00
33155;BME280;19511;42.682;23.332;2023-05-14T07:22:33;95775.66;;;10.54;100.00
33155;BME280;19511;42.682;23.332;2023-05-14T07:24:59;95751.19;;;10.41;100.00
33155;BME280;19511;42.682;23.332;2023-05-14T07:27:25;95751.13;;;10.27;100.00
33155;BME280;19511;42.682;23.332;2023-05-14T07:29:51;95634.16;;;9.47;100.00
33155;BME280;19511;42.682;23.332;2023-05-14T07:32:16;95743.19;;;10.07;100.00
33155;BME280;19511;42.682;23.332;2023-05-14T07:34:41;95737.25;;;10.02;100.00
33155;BME280;19511;42.682;23.332;2023-05-14T07:37:07;95754.22;;;10.00;100.00
33155;BME280;19511;42.682;23.332;2023-05-14T07:39:33;95748.75;;;10.15;100.00
33155;BME280;19511;42.682;23.332;2023-05-14T07:41:59;95751.09;;;10.12;100.00
33155;BME280;19511;42.682;23.332;2023-05-14T07:44:25;95750.31;;;10.08;100.00
33155;BME280;19511;42.682;23.332;2023-05-14T07:46:52;95723.44;;;10.05;100.00
33155;BME280;19511;42.682;23.332;2023-05-14T07:49:24;95761.38;;;10.23;100.00
33155;BME280;19511;42.682;23.332;2023-05-14T07:51:50;95746.34;;;10.02;100.00
33155;BME280;19511;42.682;23.332;2023-05-14T07:54:15;95761.38;;;10.23;100.00
33155;BME280;19511;42.682;23.332;2023-05-14T07:56:41;95740.81;;;10.02;100.00
33155;BME280;19511;42.682;23.332;2023-05-14T07:59:06;95768.09;;;10.18;100.00
33155;BME280;19511;42.682;23.332;2023-05-14T08:01:32;95760.59;;;10.15;100.00
33155;BME280;19511;42.682;23.332;2023-05-14T08:04:01;95755.84;;;10.16;100.00
33155;BME280;19511;42.682;23.332;2023-05-14T08:06:30;95765.34;;;10.15;100.00
33155;BME280;19511;42.682;23.332;2023-05-14T08:08:55;95704.06;;;9.76;100.00
33155;BME280;19511;42.682;23.332;2023-05-14T08:11:21;95757.81;;;10.08;100.00
33155;BME280;19511;42.682;23.332;2023-05-14T08:13:46;95755.84;;;10.08;100.00
33155;BME280;19511;42.682;23.332;2023-05-14T08:16:12;95759.00;;;10.18;100.00
33155;BME280;19511;42.682;23.332;2023-05-14T08:18:37;95664.56;;;9.61;100.00
33155;BME280;19511;42.682;23.332;2023-05-14T08:21:03;95738.06;;;10.06;100.00
33155;BME280;19511;42.682;23.332;2023-05-14T08:23:28;95646.81;;;9.62;100.00
33155;BME280;19511;42.682;23.332;2023-05-14T08:25:54;95644.44;;;9.61;100.00
33155;BME280;19511;42.682;23.332;2023-05-14T08:28:23;95714.00;;;10.13;100.00
33155;BME280;19511;42.682;23.332;2023-05-14T08:30:48;95714.38;;;10.08;100.00
33155;BME280;19511;42.682;23.332;2023-05-14T08:33:13;95721.09;;;10.22;100.00
33155;BME280;19511;42.682;23.332;2023-05-14T08:35:39;95749.16;;;10.35;100.00
33155;BME280;19511;42.682;23.332;2023-05-14T08:38:04;95749.59;;;10.48;100.00
33155;BME280;19511;42.682;23.332;2023-05-14T08:40:30;95729.84;;;10.56;100.00
33155;BME280;19511;42.682;23.332;2023-05-14T08:42:57;95625.91;;;9.79;100.00
33155;BME280;19511;42.682;23.332;2023-05-14T08:45:28;95704.50;;;10.18;100.00
33155;BME280;19511;42.682;23.332;2023-05-14T08:47:58;95722.28;;;10.21;100.00
33155;BME280;19511;42.682;23.332;2023-05-14T08:50:25;95707.28;;;10.15;100.00
33155;BME280;19511;42.682;23.332;2023-05-14T08:52:59;95720.28;;;10.10;100.00
33155;BME280;19511;42.682;23.332;2023-05-14T08:55:27;95714.00;;;10.10;100.00
33155;BME280;19511;42.682;23.332;2023-05-14T08:57:56;95691.88;;;10.10;100.00
33155;BME280;19511;42.682;23.332;2023-05-14T09:00:21;95708.44;;;10.06;100.00
33155;BME280;19511;42.682;23.332;2023-05-14T09:02:51;95711.59;;;10.16;100.00
33155;BME280;19511;42.682;23.332;2023-05-14T09:05:18;95702.13;;;10.20;100.00
33155;BME280;19511;42.682;23.332;2023-05-14T09:07:48;95659.50;;;10.03;100.00
33155;BME280;19511;42.682;23.332;2023-05-14T09:10:14;95714.44;;;10.52;100.00
33155;BME280;19511;42.682;23.332;2023-05-14T09:12:40;95700.97;;;10.54;100.00
33155;BME280;19511;42.682;23.332;2023-05-14T09:15:09;95707.69;;;10.60;100.00
33155;BME280;19511;42.682;23.332;2023-05-14T09:17:35;95713.22;;;10.67;100.00
33155;BME280;19511;42.682;23.332;2023-05-14T09:20:00;95712.03;;;10.68;100.00
33155;BME280;19511;42.682;23.332;2023-05-14T09:22:28;95717.97;;;10.56;100.00
33155;BME280;19511;42.682;23.332;2023-05-14T09:25:06;95703.34;;;10.48;100.00
33155;BME280;19511;42.682;23.332;2023-05-14T09:27:34;95718.00;;;10.41;100.00
33155;BME280;19511;42.682;23.332;2023-05-14T09:30:18;95717.94;;;10.34;100.00
33155;BME280;19511;42.682;23.332;2023-05-14T09:32:44;95598.69;;;9.78;100.00
33155;BME280;19511;42.682;23.332;2023-05-14T09:35:23;95696.25;;;10.40;100.00
33155;BME280;19511;42.682;23.332;2023-05-14T09:37:53;95692.28;;;10.44;100.00
33155;BME280;19511;42.682;23.332;2023-05-14T09:40:21;95702.94;;;10.32;100.00
33155;BME280;19511;42.682;23.332;2023-05-14T09:42:47;95670.16;;;10.08;100.00
33155;BME280;19511;42.682;23.332;2023-05-14T09:45:14;95677.66;;;10.15;100.00
33155;BME280;19511;42.682;23.332;2023-05-14T09:47:46;95689.88;;;10.32;100.00
33155;BME280;19511;42.682;23.332;2023-05-14T09:50:11;95673.75;;;10.41;100.00
33155;BME280;19511;42.682;23.332;2023-05-14T09:52:41;95690.72;;;10.43;100.00
33155;BME280;19511;42.682;23.332;2023-05-14T09:55:07;95681.59;;;10.57;100.00
33155;BME280;19511;42.682;23.332;2023-05-14T09:57:32;95663.44;;;10.42;100.00
33155;BME280;19511;42.682;23.332;2023-05-14T09:59:58;95662.28;;;10.43;100.00
33155;BME280;19511;42.682;23.332;2023-05-14T10:02:25;95682.41;;;10.61;100.00
33155;BME280;19511;42.682;23.332;2023-05-14T10:04:56;95665.03;;;10.47;100.00
33155;BME280;19511;42.682;23.332;2023-05-14T10:07:39;95647.63;;;10.46;100.00
33155;BME280;19511;42.682;23.332;2023-05-14T10:10:07;95643.69;;;10.58;100.00
33155;BME280;19511;42.682;23.332;2023-05-14T10:12:37;95642.91;;;10.47;100.00
33155;BME280;19511;42.682;23.332;2023-05-14T10:15:11;95661.47;;;10.60;100.00
33155;BME280;19511;42.682;23.332;2023-05-14T10:17:43;95650.44;;;10.42;100.00
33155;BME280;19511;42.682;23.332;2023-05-14T10:20:11;95639.75;;;10.34;100.00
33155;BME280;19511;42.682;23.332;2023-05-14T10:22:39;95623.94;;;10.27;100.00
33155;BME280;19511;42.682;23.332;2023-05-14T10:25:05;95528.84;;;9.63;100.00
33155;BME280;19511;42.682;23.332;2023-05-14T10:27:31;95639.75;;;10.37;100.00
33155;BME280;19511;42.682;23.332;2023-05-14T10:29:56;95561.59;;;9.72;100.00
33155;BME280;19511;42.682;23.332;2023-05-14T10:32:23;95569.88;;;9.75;100.00
33155;BME280;19511;42.682;23.332;2023-05-14T10:34:50;95641.31;;;10.31;100.00
33155;BME280;19511;42.682;23.332;2023-05-14T10:37:19;95650.41;;;10.32;100.00
33155;BME280;19511;42.682;23.332;2023-05-14T10:45:00;95635.00;;;10.16;100.00
33155;BME280;19511;42.682;23.332;2023-05-14T10:47:30;95647.25;;;10.26;100.00
33155;BME280;19511;42.682;23.332;2023-05-14T10:50:01;95637.38;;;10.36;100.00
33155;BME280;19511;42.682;23.332;2023-05-14T10:52:33;95648.03;;;10.41;100.00
33155;BME280;19511;42.682;23.332;2023-05-14T10:55:15;95537.50;;;9.72;100.00
33155;BME280;19511;42.682;23.332;2023-05-14T10:57:44;95647.25;;;10.40;100.00
33155;BME280;19511;42.682;23.332;2023-05-14T11:00:22;95629.50;;;10.45;100.00
33155;BME280;19511;42.682;23.332;2023-05-14T11:02:54;95625.50;;;10.50;100.00
33155;BME280;19511;42.682;23.332;2023-05-14T11:05:26;95636.16;;;10.62;100.00
33155;BME280;19511;42.682;23.332;2023-05-14T11:07:57;95634.97;;;10.67;100.00
33155;BME280;19511;42.682;23.332;2023-05-14T11:10:34;95624.72;;;10.49;100.00
33155;BME280;19511;42.682;23.332;2023-05-14T11:13:01;95625.13;;;10.48;100.00
33155;BME280;19511;42.682;23.332;2023-05-14T11:15:27;95636.16;;;10.58;100.00
33155;BME280;19511;42.682;23.332;2023-05-14T11:17:53;95633.41;;;10.62;100.00
33155;BME280;19511;42.682;23.332;2023-05-14T11:20:20;95648.81;;;10.67;100.00
33155;BME280;19511;42.682;23.332;2023-05-14T11:22:50;95636.56;;;10.64;100.00
33155;BME280;19511;42.682;23.332;2023-05-14T11:25:20;95642.88;;;10.61;100.00
33155;BME280;19511;42.682;23.332;2023-05-14T11:27:50;95641.28;;;10.67;100.00
33155;BME280;19511;42.682;23.332;2023-05-14T11:30:24;95619.16;;;10.64;100.00
33155;BME280;19511;42.682;23.332;2023-05-14T11:32:50;95616.75;;;10.76;100.00
33155;BME280;19511;42.682;23.332;2023-05-14T11:35:20;95613.97;;;10.76;100.00
33155;BME280;19511;42.682;23.332;2023-05-14T11:37:50;95624.69;;;10.71;100.00
33155;BME280;19511;42.682;23.332;2023-05-14T11:40:19;95604.56;;;10.49;100.00
33155;BME280;19511;42.682;23.332;2023-05-14T11:42:55;95638.88;;;10.76;100.00
33155;BME280;19511;42.682;23.332;2023-05-14T11:45:26;95604.16;;;10.54;100.00
33155;BME280;19511;42.682;23.332;2023-05-14T11:47:58;95596.63;;;10.65;100.00
33155;BME280;19511;42.682;23.332;2023-05-14T11:50:27;95616.72;;;10.87;100.00
33155;BME280;19511;42.682;23.332;2023-05-14T11:52:57;95614.34;;;10.89;100.00
33155;BME280;19511;42.682;23.332;2023-05-14T11:55:36;95623.41;;;10.97;100.00
33155;BME280;19511;42.682;23.332;2023-05-14T11:58:05;95601.25;;;11.01;100.00
33155;BME280;19511;42.682;23.332;2023-05-14T12:00:31;95604.69;;;11.26;100.00
33155;BME280;19511;42.682;23.332;2023-05-14T12:03:01;95510.06;;;10.68;100.00
33155;BME280;19511;42.682;23.332;2023-05-14T12:05:28;95595.97;;;11.32;100.00
33155;BME280;19511;42.682;23.332;2023-05-14T12:07:57;95588.00;;;11.37;100.00
33155;BME280;19511;42.682;23.332;2023-05-14T12:10:23;95592.19;;;11.67;100.00
33155;BME280;19511;42.682;23.332;2023-05-14T12:12:59;95571.22;;;11.63;100.00
33155;BME280;19511;42.682;23.332;2023-05-14T12:15:33;95541.63;;;11.52;100.00
33155;BME280;19511;42.682;23.332;2023-05-14T12:18:08;95584.47;;;11.93;100.00
33155;BME280;19511;42.682;23.332;2023-05-14T12:20:33;95565.44;;;11.95;100.00
33155;BME280;19511;42.682;23.332;2023-05-14T12:23:03;95549.50;;;12.10;100.00
33155;BME280;19511;42.682;23.332;2023-05-14T12:25:29;95552.19;;;11.72;100.00
33155;BME280;19511;42.682;23.332;2023-05-14T12:28:01;95545.44;;;11.69;100.00
33155;BME280;19511;42.682;23.332;2023-05-14T12:30:54;95553.03;;;11.62;100.00
33155;BME280;19511;42.682;23.332;2023-05-14T12:33:21;95513.50;;;11.54;100.00
33155;BME280;19511;42.682;23.332;2023-05-14T12:35:48;95550.50;;;11.82;100.00
33155;BME280;19511;42.682;23.332;2023-05-14T12:38:17;95539.41;;;11.82;100.00
33155;BME280;19511;42.682;23.332;2023-05-14T12:40:43;95547.41;;;11.72;100.00
33155;BME280;19511;42.682;23.332;2023-05-14T12:43:09;95513.00;;;11.70;100.00
33155;BME280;19511;42.682;23.332;2023-05-14T12:45:37;95523.63;;;11.75;100.00
33155;BME280;19511;42.682;23.332;2023-05-14T12:48:02;95540.09;;;11.97;100.00
33155;BME280;19511;42.682;23.332;2023-05-14T12:50:28;95537.34;;;11.89;100.00
33155;BME280;19511;42.682;23.332;2023-05-14T12:52:53;95471.38;;;11.28;100.00